sensor_id;sensor_type;location;lat;lon;timestamp;pressure;altitude;pressure_sealevel;temperature
18161;BMP280;9205;52.032;4.314;2023-12-20T00:02:21;101586.69;;;9.45
18161;BMP280;9205;52.032;4.314;2023-12-20T00:04:49;101583.25;;;9.52
18161;BMP280;9205;52.032;4.314;2023-12-20T00:07:16;101578.19;;;9.49
18161;BMP280;9205;52.032;4.314;2023-12-20T00:09:43;101574.84;;;9.47
18161;BMP280;9205;52.032;4.314;2023-12-20T00:12:11;101569.75;;;9.48
18161;BMP280;9205;52.032;4.314;2023-12-20T00:14:38;101554.56;;;9.47
18161;BMP280;9205;52.032;4.314;2023-12-20T00:17:05;101579.09;;;9.42
18161;BMP280;9205;52.032;4.314;2023-12-20T00:19:34;101570.59;;;9.44
18161;BMP280;9205;52.032;4.314;2023-12-20T00:22:02;101573.97;;;9.54
18161;BMP280;9205;52.032;4.314;2023-12-20T00:24:29;101570.59;;;9.49
18161;BMP280;9205;52.032;4.314;2023-12-20T00:26:56;101590.03;;;9.50
18161;BMP280;9205;52.032;4.314;2023-12-20T00:29:23;101579.03;;;9.52
18161;BMP280;9205;52.032;4.314;2023-12-20T00:31:50;101585.78;;;9.55
18161;BMP280;9205;52.032;4.314;2023-12-20T00:34:17;101574.78;;;9.56
18161;BMP280;9205;52.032;4.314;2023-12-20T00:36:46;101584.91;;;9.56
18161;BMP280;9205;52.032;4.314;2023-12-20T00:39:13;101584.06;;;9.57
18161;BMP280;9205;52.032;4.314;2023-12-20T00:41:40;101587.47;;;9.57
18161;BMP280;9205;52.032;4.314;2023-12-20T00:44:07;101591.69;;;9.57
18161;BMP280;9205;52.032;4.314;2023-12-20T00:46:34;101588.34;;;9.55
18161;BMP280;9205;52.032;4.314;2023-12-20T00:49:01;101591.69;;;9.57
18161;BMP280;9205;52.032;4.314;2023-12-20T00:51:29;101589.16;;;9.55
18161;BMP280;9205;52.032;4.314;2023-12-20T00:53:57;101591.69;;;9.60
18161;BMP280;9205;52.032;4.314;2023-12-20T00:56:24;101586.56;;;9.67
18161;BMP280;9205;52.032;4.314;2023-12-20T00:58:51;101584.06;;;9.60
18161;BMP280;9205;52.032;4.314;2023-12-20T01:01:18;101588.28;;;9.62
18161;BMP280;9205;52.032;4.314;2023-12-20T01:03:45;101579.00;;;9.55
18161;BMP280;9205;52.032;4.314;2023-12-20T01:06:13;101590.00;;;9.56
18161;BMP280;9205;52.032;4.314;2023-12-20T01:08:40;101595.06;;;9.59
18161;BMP280;9205;52.032;4.314;2023-12-20T01:11:08;101598.47;;;9.55
18161;BMP280;9205;52.032;4.314;2023-12-20T01:13:35;101595.06;;;9.59
18161;BMP280;9205;52.032;4.314;2023-12-20T01:16:03;101593.38;;;9.61
18161;BMP280;9205;52.032;4.314;2023-12-20T01:18:31;101600.97;;;9.65
18161;BMP280;9205;52.032;4.314;2023-12-20T01:21:02;101589.91;;;9.72
18161;BMP280;9205;52.032;4.314;2023-12-20T01:23:29;101599.25;;;9.67
18161;BMP280;9205;52.032;4.314;2023-12-20T01:25:57;101595.00;;;9.68
18161;BMP280;9205;52.032;4.314;2023-12-20T01:28:27;101600.13;;;9.62
18161;BMP280;9205;52.032;4.314;2023-12-20T01:30:54;101608.59;;;9.59
18161;BMP280;9205;52.032;4.314;2023-12-20T01:33:21;101595.84;;;9.67
18161;BMP280;9205;52.032;4.314;2023-12-20T01:35:48;101583.09;;;9.77
18161;BMP280;9205;52.032;4.314;2023-12-20T01:38:15;101577.25;;;9.71
18161;BMP280;9205;52.032;4.314;2023-12-20T01:40:44;101577.28;;;9.66
18161;BMP280;9205;52.032;4.314;2023-12-20T01:43:11;101567.13;;;9.66
18161;BMP280;9205;52.032;4.314;2023-12-20T01:45:40;101572.28;;;9.53
18161;BMP280;9205;52.032;4.314;2023-12-20T01:48:09;101571.38;;;9.60
18161;BMP280;9205;52.032;4.314;2023-12-20T01:50:37;101585.78;;;9.55
18161;BMP280;9205;52.032;4.314;2023-12-20T01:53:07;101576.44;;;9.67
18161;BMP280;9205;52.032;4.314;2023-12-20T01:55:39;101577.28;;;9.66
18161;BMP280;9205;52.032;4.314;2023-12-20T01:58:09;101578.09;;;9.64
18161;BMP280;9205;52.032;4.314;2023-12-20T02:00:37;101578.16;;;9.58
18161;BMP280;9205;52.032;4.314;2023-12-20T02:03:05;101574.00;;;9.48
18161;BMP280;9205;52.032;4.314;2023-12-20T02:05:35;101579.88;;;9.53
18161;BMP280;9205;52.032;4.314;2023-12-20T02:08:03;101579.03;;;9.54
18161;BMP280;9205;52.032;4.314;2023-12-20T02:10:31;101569.72;;;9.53
18161;BMP280;9205;52.032;4.314;2023-12-20T02:12:58;101571.41;;;9.55
18161;BMP280;9205;52.032;4.314;2023-12-20T02:15:26;101579.84;;;9.56
18161;BMP280;9205;52.032;4.314;2023-12-20T02:17:54;101585.78;;;9.55
18161;BMP280;9205;52.032;4.314;2023-12-20T02:20:22;101583.22;;;9.58
18161;BMP280;9205;52.032;4.314;2023-12-20T02:22:51;101572.28;;;9.50
18161;BMP280;9205;52.032;4.314;2023-12-20T02:25:18;101566.34;;;9.54
18161;BMP280;9205;52.032;4.314;2023-12-20T02:27:45;101569.75;;;9.50
18161;BMP280;9205;52.032;4.314;2023-12-20T02:30:12;101573.16;;;9.46
18161;BMP280;9205;52.032;4.314;2023-12-20T02:32:40;101566.31;;;9.58
18161;BMP280;9205;52.032;4.314;2023-12-20T02:35:07;101573.94;;;9.55
18161;BMP280;9205;52.032;4.314;2023-12-20T02:37:34;101574.72;;;9.65
18161;BMP280;9205;52.032;4.314;2023-12-20T02:40:04;101569.63;;;9.71
18161;BMP280;9205;52.032;4.314;2023-12-20T02:42:31;101560.34;;;9.67
18161;BMP280;9205;52.032;4.314;2023-12-20T02:44:58;101562.88;;;9.70
18161;BMP280;9205;52.032;4.314;2023-12-20T02:47:25;101563.72;;;9.66
18161;BMP280;9205;52.032;4.314;2023-12-20T02:49:51;101555.25;;;9.67
18161;BMP280;9205;52.032;4.314;2023-12-20T02:52:18;101551.91;;;9.63
18161;BMP280;9205;52.032;4.314;2023-12-20T02:54:46;101547.69;;;9.61
18161;BMP280;9205;52.032;4.314;2023-12-20T02:57:14;101545.13;;;9.64
18161;BMP280;9205;52.032;4.314;2023-12-20T02:59:41;101546.78;;;9.69
18161;BMP280;9205;52.032;4.314;2023-12-20T03:02:08;101549.34;;;9.68
18161;BMP280;9205;52.032;4.314;2023-12-20T03:04:35;101551.94;;;9.62
18161;BMP280;9205;52.032;4.314;2023-12-20T03:07:03;101545.22;;;9.55
18161;BMP280;9205;52.032;4.314;2023-12-20T03:09:30;101548.59;;;9.54
18161;BMP280;9205;52.032;4.314;2023-12-20T03:11:57;101547.66;;;9.67
18161;BMP280;9205;52.032;4.314;2023-12-20T03:14:25;101549.38;;;9.62
18161;BMP280;9205;52.032;4.314;2023-12-20T03:16:52;101550.25;;;9.58
18161;BMP280;9205;52.032;4.314;2023-12-20T03:19:19;101554.47;;;9.59
18161;BMP280;9205;52.032;4.314;2023-12-20T03:21:47;101571.44;;;9.54
18161;BMP280;9205;52.032;4.314;2023-12-20T03:24:14;101558.75;;;9.54
18161;BMP280;9205;52.032;4.314;2023-12-20T03:26:41;101564.66;;;9.53
18161;BMP280;9205;52.032;4.314;2023-12-20T03:29:08;101556.16;;;9.57
18161;BMP280;9205;52.032;4.314;2023-12-20T03:31:36;101557.06;;;9.48
18161;BMP280;9205;52.032;4.314;2023-12-20T03:34:03;101557.84;;;9.61
18161;BMP280;9205;52.032;4.314;2023-12-20T03:36:31;101552.81;;;9.52
18161;BMP280;9205;52.032;4.314;2023-12-20T03:38:58;101562.16;;;9.45
18161;BMP280;9205;52.032;4.314;2023-12-20T03:41:25;101544.41;;;9.47
18161;BMP280;9205;52.032;4.314;2023-12-20T03:43:52;101548.66;;;9.43
18161;BMP280;9205;52.032;4.314;2023-12-20T03:46:19;101546.94;;;9.45
18161;BMP280;9205;52.032;4.314;2023-12-20T03:48:48;101557.94;;;9.46
18161;BMP280;9205;52.032;4.314;2023-12-20T03:51:15;101559.63;;;9.45
18161;BMP280;9205;52.032;4.314;2023-12-20T03:53:42;101555.44;;;9.41
18161;BMP280;9205;52.032;4.314;2023-12-20T03:56:09;101545.25;;;9.46
18161;BMP280;9205;52.032;4.314;2023-12-20T03:58:36;101545.25;;;9.46
18161;BMP280;9205;52.032;4.314;2023-12-20T04:01:03;101535.09;;;9.47
18161;BMP280;9205;52.032;4.314;2023-12-20T04:03:35;101550.34;;;9.46
18161;BMP280;9205;52.032;4.314;2023-12-20T04:06:04;101552.84;;;9.44
18161;BMP280;9205;52.032;4.314;2023-12-20T04:08:31;101548.66;;;9.43
18161;BMP280;9205;52.032;4.314;2023-12-20T04:10:58;101546.09;;;9.48
18161;BMP280;9205;52.032;4.314;2023-12-20T04:13:25;101538.53;;;9.40
18161;BMP280;9205;52.032;4.314;2023-12-20T04:15:53;101546.94;;;9.47
18161;BMP280;9205;52.032;4.314;2023-12-20T04:18:20;101540.16;;;9.47
18161;BMP280;9205;52.032;4.314;2023-12-20T04:20:47;101540.19;;;9.43
18161;BMP280;9205;52.032;4.314;2023-12-20T04:23:16;101539.34;;;9.41
18161;BMP280;9205;52.032;4.314;2023-12-20T04:25:43;101546.13;;;9.40
18161;BMP280;9205;52.032;4.314;2023-12-20T04:28:10;101536.81;;;9.44
18161;BMP280;9205;52.032;4.314;2023-12-20T04:30:38;101529.19;;;9.44
18161;BMP280;9205;52.032;4.314;2023-12-20T04:33:05;101524.97;;;9.46
18161;BMP280;9205;52.032;4.314;2023-12-20T04:35:32;101514.88;;;9.40
18161;BMP280;9205;52.032;4.314;2023-12-20T04:37:59;101524.13;;;9.44
18161;BMP280;9205;52.032;4.314;2023-12-20T04:40:27;101508.91;;;9.41
18161;BMP280;9205;52.032;4.314;2023-12-20T04:42:54;101513.13;;;9.45
18161;BMP280;9205;52.032;4.314;2023-12-20T04:45:21;101507.22;;;9.43
18161;BMP280;9205;52.032;4.314;2023-12-20T04:47:50;101503.00;;;9.42
18161;BMP280;9205;52.032;4.314;2023-12-20T04:50:17;101497.13;;;9.37
18161;BMP280;9205;52.032;4.314;2023-12-20T04:52:45;101506.41;;;9.38
18161;BMP280;9205;52.032;4.314;2023-12-20T04:55:12;101502.19;;;9.40
18161;BMP280;9205;52.032;4.314;2023-12-20T04:57:41;101502.19;;;9.37
18161;BMP280;9205;52.032;4.314;2023-12-20T05:00:09;101495.44;;;9.39
18161;BMP280;9205;52.032;4.314;2023-12-20T05:02:37;101498.81;;;9.38
18161;BMP280;9205;52.032;4.314;2023-12-20T05:05:05;101512.28;;;9.43
18161;BMP280;9205;52.032;4.314;2023-12-20T05:07:32;101513.16;;;9.37
18161;BMP280;9205;52.032;4.314;2023-12-20T05:09:59;101511.47;;;9.39
18161;BMP280;9205;52.032;4.314;2023-12-20T05:12:26;101514.88;;;9.37
18161;BMP280;9205;52.032;4.314;2023-12-20T05:14:55;101515.72;;;9.39
18161;BMP280;9205;52.032;4.314;2023-12-20T05:17:22;101515.66;;;9.45
18161;BMP280;9205;52.032;4.314;2023-12-20T05:19:49;101508.94;;;9.38
18161;BMP280;9205;52.032;4.314;2023-12-20T05:22:16;101514.03;;;9.36
18161;BMP280;9205;52.032;4.314;2023-12-20T05:24:44;101518.22;;;9.43
18161;BMP280;9205;52.032;4.314;2023-12-20T05:27:11;101515.66;;;9.45
18161;BMP280;9205;52.032;4.314;2023-12-20T05:29:38;101509.78;;;9.40
18161;BMP280;9205;52.032;4.314;2023-12-20T05:32:07;101503.84;;;9.41
18161;BMP280;9205;52.032;4.314;2023-12-20T05:34:34;101502.13;;;9.46
18161;BMP280;9205;52.032;4.314;2023-12-20T05:37:01;101508.88;;;9.51
18161;BMP280;9205;52.032;4.314;2023-12-20T05:39:28;101495.38;;;9.42
18161;BMP280;9205;52.032;4.314;2023-12-20T05:41:56;101496.22;;;9.44
18161;BMP280;9205;52.032;4.314;2023-12-20T05:44:23;101494.53;;;9.44
18161;BMP280;9205;52.032;4.314;2023-12-20T05:46:50;101481.03;;;9.42
18161;BMP280;9205;52.032;4.314;2023-12-20T05:49:19;101489.50;;;9.41
18161;BMP280;9205;52.032;4.314;2023-12-20T05:51:47;101493.69;;;9.44
18161;BMP280;9205;52.032;4.314;2023-12-20T05:54:14;101495.34;;;9.46
18161;BMP280;9205;52.032;4.314;2023-12-20T05:56:42;101497.91;;;9.48
18161;BMP280;9205;52.032;4.314;2023-12-20T05:59:09;101505.47;;;9.51
18161;BMP280;9205;52.032;4.314;2023-12-20T06:01:36;101503.75;;;9.56
18161;BMP280;9205;52.032;4.314;2023-12-20T06:04:03;101511.38;;;9.57
18161;BMP280;9205;52.032;4.314;2023-12-20T06:06:32;101504.50;;;9.68
18161;BMP280;9205;52.032;4.314;2023-12-20T06:08:59;101510.44;;;9.69
18161;BMP280;9205;52.032;4.314;2023-12-20T06:11:28;101501.16;;;9.63
18161;BMP280;9205;52.032;4.314;2023-12-20T06:13:55;101500.31;;;9.67
18161;BMP280;9205;52.032;4.314;2023-12-20T06:16:22;101496.84;;;9.76
18161;BMP280;9205;52.032;4.314;2023-12-20T06:18:49;101498.53;;;9.75
18161;BMP280;9205;52.032;4.314;2023-12-20T06:21:17;101499.34;;;9.77
18161;BMP280;9205;52.032;4.314;2023-12-20T06:23:45;101492.66;;;9.70
18161;BMP280;9205;52.032;4.314;2023-12-20T06:26:12;101490.09;;;9.75
18161;BMP280;9205;52.032;4.314;2023-12-20T06:28:39;101490.03;;;9.81
18161;BMP280;9205;52.032;4.314;2023-12-20T06:31:07;101500.22;;;9.75
18161;BMP280;9205;52.032;4.314;2023-12-20T06:33:34;101494.28;;;9.77
18161;BMP280;9205;52.032;4.314;2023-12-20T06:36:01;101489.25;;;9.73
18161;BMP280;9205;52.032;4.314;2023-12-20T06:38:27;101490.09;;;9.72
18161;BMP280;9205;52.032;4.314;2023-12-20T06:40:56;101499.47;;;9.64
18161;BMP280;9205;52.032;4.314;2023-12-20T06:43:24;101489.34;;;9.61
18161;BMP280;9205;52.032;4.314;2023-12-20T06:45:51;101498.66;;;9.59
18161;BMP280;9205;52.032;4.314;2023-12-20T06:48:18;101487.66;;;9.63
18161;BMP280;9205;52.032;4.314;2023-12-20T06:50:46;101477.50;;;9.63
18161;BMP280;9205;52.032;4.314;2023-12-20T06:53:13;101480.06;;;9.60
18161;BMP280;9205;52.032;4.314;2023-12-20T06:55:40;101480.06;;;9.57
18161;BMP280;9205;52.032;4.314;2023-12-20T06:58:09;101476.72;;;9.55
18161;BMP280;9205;52.032;4.314;2023-12-20T07:00:36;101478.41;;;9.53
18161;BMP280;9205;52.032;4.314;2023-12-20T07:03:04;101476.69;;;9.58
18161;BMP280;9205;52.032;4.314;2023-12-20T07:05:31;101461.50;;;9.55
18161;BMP280;9205;52.032;4.314;2023-12-20T07:07:59;101462.38;;;9.49
18161;BMP280;9205;52.032;4.314;2023-12-20T07:10:26;101465.72;;;9.54
18161;BMP280;9205;52.032;4.314;2023-12-20T07:12:53;101458.06;;;9.56
18161;BMP280;9205;52.032;4.314;2023-12-20T07:15:22;101459.88;;;9.45
18161;BMP280;9205;52.032;4.314;2023-12-20T07:17:49;101440.41;;;9.45
18161;BMP280;9205;52.032;4.314;2023-12-20T07:20:16;101442.03;;;9.52
18161;BMP280;9205;52.032;4.314;2023-12-20T07:22:43;101435.25;;;9.59
18161;BMP280;9205;52.032;4.314;2023-12-20T07:25:11;101438.66;;;9.56
18161;BMP280;9205;52.032;4.314;2023-12-20T07:27:38;101447.97;;;9.53
18161;BMP280;9205;52.032;4.314;2023-12-20T07:30:06;101442.03;;;9.55
18161;BMP280;9205;52.032;4.314;2023-12-20T07:32:35;101462.31;;;9.55
18161;BMP280;9205;52.032;4.314;2023-12-20T07:35:02;101464.88;;;9.54
18161;BMP280;9205;52.032;4.314;2023-12-20T07:37:29;101464.03;;;9.53
18161;BMP280;9205;52.032;4.314;2023-12-20T07:39:57;101478.41;;;9.53
18161;BMP280;9205;52.032;4.314;2023-12-20T07:42:24;101478.38;;;9.57
18161;BMP280;9205;52.032;4.314;2023-12-20T07:44:51;101480.03;;;9.61
18161;BMP280;9205;52.032;4.314;2023-12-20T07:47:18;101484.28;;;9.61
18161;BMP280;9205;52.032;4.314;2023-12-20T07:49:49;101482.59;;;9.58
18161;BMP280;9205;52.032;4.314;2023-12-20T07:52:17;101480.88;;;9.62
18161;BMP280;9205;52.032;4.314;2023-12-20T07:54:44;101487.66;;;9.57
18161;BMP280;9205;52.032;4.314;2023-12-20T07:57:12;101483.44;;;9.62
18161;BMP280;9205;52.032;4.314;2023-12-20T07:59:39;101489.34;;;9.61
18161;BMP280;9205;52.032;4.314;2023-12-20T08:02:06;101493.59;;;9.59
18161;BMP280;9205;52.032;4.314;2023-12-20T08:04:33;101493.59;;;9.59
18161;BMP280;9205;52.032;4.314;2023-12-20T08:07:02;101492.72;;;9.61
18161;BMP280;9205;52.032;4.314;2023-12-20T08:09:29;101489.31;;;9.64
18161;BMP280;9205;52.032;4.314;2023-12-20T08:11:57;101490.16;;;9.66
18161;BMP280;9205;52.032;4.314;2023-12-20T08:14:25;101487.59;;;9.69
18161;BMP280;9205;52.032;4.314;2023-12-20T08:16:52;101485.91;;;9.71
18161;BMP280;9205;52.032;4.314;2023-12-20T08:19:20;101490.94;;;9.74
18161;BMP280;9205;52.032;4.314;2023-12-20T08:21:47;101492.59;;;9.78
18161;BMP280;9205;52.032;4.314;2023-12-20T08:24:15;101497.63;;;9.84
18161;BMP280;9205;52.032;4.314;2023-12-20T08:26:42;101495.88;;;9.92
18161;BMP280;9205;52.032;4.314;2023-12-20T08:29:09;101499.28;;;9.89
18161;BMP280;9205;52.032;4.314;2023-12-20T08:31:37;101493.38;;;9.86
18161;BMP280;9205;52.032;4.314;2023-12-20T08:34:04;101498.34;;;9.95
18161;BMP280;9205;52.032;4.314;2023-12-20T08:36:31;101497.53;;;9.97
18161;BMP280;9205;52.032;4.314;2023-12-20T08:38:58;101498.38;;;10.01
18161;BMP280;9205;52.032;4.314;2023-12-20T08:41:28;101496.63;;;10.06
18161;BMP280;9205;52.032;4.314;2023-12-20T08:43:55;101494.13;;;9.97
18161;BMP280;9205;52.032;4.314;2023-12-20T08:46:22;101499.16;;;10.03
18161;BMP280;9205;52.032;4.314;2023-12-20T08:48:49;101489.03;;;9.97
18161;BMP280;9205;52.032;4.314;2023-12-20T08:51:16;101484.84;;;9.97
18161;BMP280;9205;52.032;4.314;2023-12-20T08:53:43;101483.91;;;10.09
18161;BMP280;9205;52.032;4.314;2023-12-20T08:56:13;101472.03;;;10.09
18161;BMP280;9205;52.032;4.314;2023-12-20T08:58:42;101477.88;;;10.18
18161;BMP280;9205;52.032;4.314;2023-12-20T09:01:09;101469.31;;;10.25
18161;BMP280;9205;52.032;4.314;2023-12-20T09:03:36;101477.72;;;10.33
18161;BMP280;9205;52.032;4.314;2023-12-20T09:06:04;101488.72;;;10.34
18161;BMP280;9205;52.032;4.314;2023-12-20T09:08:31;101470.09;;;10.35
18161;BMP280;9205;52.032;4.314;2023-12-20T09:10:59;101475.13;;;10.38
18161;BMP280;9205;52.032;4.314;2023-12-20T09:13:26;101470.03;;;10.41
18161;BMP280;9205;52.032;4.314;2023-12-20T09:15:55;101465.81;;;10.37
18161;BMP280;9205;52.032;4.314;2023-12-20T09:18:23;101466.69;;;10.36
18161;BMP280;9205;52.032;4.314;2023-12-20T09:20:50;101467.53;;;10.36
18161;BMP280;9205;52.032;4.314;2023-12-20T09:23:17;101464.09;;;10.42
18161;BMP280;9205;52.032;4.314;2023-12-20T09:25:45;101465.75;;;10.41
18161;BMP280;9205;52.032;4.314;2023-12-20T09:28:12;101478.50;;;10.40
18161;BMP280;9205;52.032;4.314;2023-12-20T09:30:39;101477.63;;;10.42
18161;BMP280;9205;52.032;4.314;2023-12-20T09:33:08;101485.22;;;10.42
18161;BMP280;9205;52.032;4.314;2023-12-20T09:35:35;101462.44;;;10.36
18161;BMP280;9205;52.032;4.314;2023-12-20T09:38:02;101470.09;;;10.33
18161;BMP280;9205;52.032;4.314;2023-12-20T09:40:32;101463.34;;;10.31
18161;BMP280;9205;52.032;4.314;2023-12-20T09:43:04;101472.59;;;10.39
18161;BMP280;9205;52.032;4.314;2023-12-20T09:45:32;101480.13;;;10.45
18161;BMP280;9205;52.032;4.314;2023-12-20T09:47:59;101484.28;;;10.52
18161;BMP280;9205;52.032;4.314;2023-12-20T09:50:30;101487.66;;;10.54
18161;BMP280;9205;52.032;4.314;2023-12-20T09:53:00;101501.31;;;10.44
18161;BMP280;9205;52.032;4.314;2023-12-20T09:55:31;101494.50;;;10.45
18161;BMP280;9205;52.032;4.314;2023-12-20T09:58:00;101497.91;;;10.48
18161;BMP280;9205;52.032;4.314;2023-12-20T10:00:27;101508.00;;;10.51
18161;BMP280;9205;52.032;4.314;2023-12-20T10:02:58;101502.84;;;10.57
18161;BMP280;9205;52.032;4.314;2023-12-20T10:05:29;101493.44;;;10.67
18161;BMP280;9205;52.032;4.314;2023-12-20T10:07:58;101492.59;;;10.66
18161;BMP280;9205;52.032;4.314;2023-12-20T10:10:25;101495.97;;;10.65
18161;BMP280;9205;52.032;4.314;2023-12-20T10:13:04;101491.72;;;10.70
18161;BMP280;9205;52.032;4.314;2023-12-20T10:15:32;101500.97;;;10.74
18161;BMP280;9205;52.032;4.314;2023-12-20T10:18:00;101497.66;;;10.69
18161;BMP280;9205;52.032;4.314;2023-12-20T10:20:29;101494.09;;;10.82
18161;BMP280;9205;52.032;4.314;2023-12-20T10:22:58;101493.34;;;10.74
18161;BMP280;9205;52.032;4.314;2023-12-20T10:25:26;101484.78;;;10.81
18161;BMP280;9205;52.032;4.314;2023-12-20T10:28:09;101490.72;;;10.80
18161;BMP280;9205;52.032;4.314;2023-12-20T10:30:36;101495.84;;;10.79
18161;BMP280;9205;52.032;4.314;2023-12-20T10:33:06;101485.44;;;10.95
18161;BMP280;9205;52.032;4.314;2023-12-20T10:35:35;101484.69;;;10.89
18161;BMP280;9205;52.032;4.314;2023-12-20T10:38:05;101486.34;;;10.91
18161;BMP280;9205;52.032;4.314;2023-12-20T10:40:35;101482.13;;;10.90
18161;BMP280;9205;52.032;4.314;2023-12-20T10:43:04;101477.81;;;10.95
18161;BMP280;9205;52.032;4.314;2023-12-20T10:45:31;101469.44;;;10.89
18161;BMP280;9205;52.032;4.314;2023-12-20T10:47:59;101461.78;;;10.90
18161;BMP280;9205;52.032;4.314;2023-12-20T10:50:27;101471.06;;;10.94
18161;BMP280;9205;52.032;4.314;2023-12-20T10:52:57;101460.00;;;10.98
18161;BMP280;9205;52.032;4.314;2023-12-20T10:55:25;101455.56;;;11.12
18161;BMP280;9205;52.032;4.314;2023-12-20T10:58:00;101458.91;;;11.15
18161;BMP280;9205;52.032;4.314;2023-12-20T11:00:29;101461.44;;;11.17
18161;BMP280;9205;52.032;4.314;2023-12-20T11:03:00;101452.06;;;11.20
18161;BMP280;9205;52.032;4.314;2023-12-20T11:05:38;101440.19;;;11.18
18161;BMP280;9205;52.032;4.314;2023-12-20T11:08:13;101454.53;;;11.25
18161;BMP280;9205;52.032;4.314;2023-12-20T11:10:49;101445.22;;;11.22
18161;BMP280;9205;52.032;4.314;2023-12-20T11:13:25;101452.78;;;11.27
18161;BMP280;9205;52.032;4.314;2023-12-20T11:15:53;101437.59;;;11.24
18161;BMP280;9205;52.032;4.314;2023-12-20T11:18:29;101434.25;;;11.19
18161;BMP280;9205;52.032;4.314;2023-12-20T11:21:00;101416.38;;;11.25
18161;BMP280;9205;52.032;4.314;2023-12-20T11:23:32;101419.06;;;11.14
18161;BMP280;9205;52.032;4.314;2023-12-20T11:26:01;101402.97;;;11.14
18161;BMP280;9205;52.032;4.314;2023-12-20T11:28:29;101406.34;;;11.16
18161;BMP280;9205;52.032;4.314;2023-12-20T11:30:58;101410.50;;;11.20
18161;BMP280;9205;52.032;4.314;2023-12-20T11:33:31;101411.31;;;11.25
18161;BMP280;9205;52.032;4.314;2023-12-20T11:35:59;101401.91;;;11.27
18161;BMP280;9205;52.032;4.314;2023-12-20T11:38:26;101401.16;;;11.22
18161;BMP280;9205;52.032;4.314;2023-12-20T11:40:55;101412.09;;;11.27
18161;BMP280;9205;52.032;4.314;2023-12-20T11:43:41;101415.44;;;11.30
18161;BMP280;9205;52.032;4.314;2023-12-20T11:46:09;101417.25;;;11.24
18161;BMP280;9205;52.032;4.314;2023-12-20T11:48:38;101417.16;;;11.30
18161;BMP280;9205;52.032;4.314;2023-12-20T11:51:10;101414.72;;;11.22
18161;BMP280;9205;52.032;4.314;2023-12-20T11:53:37;101416.34;;;11.26
18161;BMP280;9205;52.032;4.314;2023-12-20T11:56:07;101412.88;;;11.30
18161;BMP280;9205;52.032;4.314;2023-12-20T11:58:34;101426.19;;;11.47
18161;BMP280;9205;52.032;4.314;2023-12-20T12:01:02;101411.06;;;11.40
18161;BMP280;9205;52.032;4.314;2023-12-20T12:03:30;101416.88;;;11.48
18161;BMP280;9205;52.032;4.314;2023-12-20T12:05:58;101415.28;;;11.41
18161;BMP280;9205;52.032;4.314;2023-12-20T12:08:26;101433.03;;;11.44
18161;BMP280;9205;52.032;4.314;2023-12-20T12:10:54;101406.00;;;11.37
18161;BMP280;9205;52.032;4.314;2023-12-20T12:13:22;101403.47;;;11.37
18161;BMP280;9205;52.032;4.314;2023-12-20T12:15:53;101406.06;;;11.32
18161;BMP280;9205;52.032;4.314;2023-12-20T12:18:20;101399.31;;;11.31
18161;BMP280;9205;52.032;4.314;2023-12-20T12:20:48;101398.41;;;11.34
18161;BMP280;9205;52.032;4.314;2023-12-20T12:23:23;101392.53;;;11.32
18161;BMP280;9205;52.032;4.314;2023-12-20T12:25:50;101393.31;;;11.34
18161;BMP280;9205;52.032;4.314;2023-12-20T12:28:17;101382.22;;;11.41
18161;BMP280;9205;52.032;4.314;2023-12-20T12:30:58;101388.94;;;11.43
18161;BMP280;9205;52.032;4.314;2023-12-20T12:33:25;101382.97;;;11.46
18161;BMP280;9205;52.032;4.314;2023-12-20T12:35:53;101372.00;;;11.42
18161;BMP280;9205;52.032;4.314;2023-12-20T12:38:21;101370.13;;;11.55
18161;BMP280;9205;52.032;4.314;2023-12-20T12:40:49;101368.69;;;11.39
18161;BMP280;9205;52.032;4.314;2023-12-20T12:43:16;101383.97;;;11.36
18161;BMP280;9205;52.032;4.314;2023-12-20T12:45:43;101373.88;;;11.33
18161;BMP280;9205;52.032;4.314;2023-12-20T12:48:12;101363.63;;;11.36
18161;BMP280;9205;52.032;4.314;2023-12-20T12:50:39;101366.97;;;11.39
18161;BMP280;9205;52.032;4.314;2023-12-20T12:53:06;101367.81;;;11.40
18161;BMP280;9205;52.032;4.314;2023-12-20T12:55:35;101358.47;;;11.40
18161;BMP280;9205;52.032;4.314;2023-12-20T12:58:02;101359.31;;;11.41
18161;BMP280;9205;52.032;4.314;2023-12-20T13:00:30;101362.81;;;11.34
18161;BMP280;9205;52.032;4.314;2023-12-20T13:02:57;101333.97;;;11.35
18161;BMP280;9205;52.032;4.314;2023-12-20T13:05:26;101336.53;;;11.33
18161;BMP280;9205;52.032;4.314;2023-12-20T13:07:53;101322.09;;;11.34
18161;BMP280;9205;52.032;4.314;2023-12-20T13:10:21;101312.00;;;11.31
18161;BMP280;9205;52.032;4.314;2023-12-20T13:12:48;101315.50;;;11.24
18161;BMP280;9205;52.032;4.314;2023-12-20T13:15:15;101305.34;;;11.24
18161;BMP280;9205;52.032;4.314;2023-12-20T13:17:42;101303.53;;;11.29
18161;BMP280;9205;52.032;4.314;2023-12-20T13:20:09;101302.75;;;11.25
18161;BMP280;9205;52.032;4.314;2023-12-20T13:22:38;101303.69;;;11.20
18161;BMP280;9205;52.032;4.314;2023-12-20T13:25:06;101304.47;;;11.25
18161;BMP280;9205;52.032;4.314;2023-12-20T13:27:33;101304.56;;;11.20
18161;BMP280;9205;52.032;4.314;2023-12-20T13:30:01;101299.47;;;11.20
18161;BMP280;9205;52.032;4.314;2023-12-20T13:32:28;101301.13;;;11.23
18161;BMP280;9205;52.032;4.314;2023-12-20T13:34:56;101305.34;;;11.24
18161;BMP280;9205;52.032;4.314;2023-12-20T13:37:24;101295.16;;;11.22
18161;BMP280;9205;52.032;4.314;2023-12-20T13:39:52;101273.09;;;11.24
18161;BMP280;9205;52.032;4.314;2023-12-20T13:42:19;101279.00;;;11.26
18161;BMP280;9205;52.032;4.314;2023-12-20T13:44:47;101278.22;;;11.23
18161;BMP280;9205;52.032;4.314;2023-12-20T13:47:14;101275.72;;;11.21
18161;BMP280;9205;52.032;4.314;2023-12-20T13:49:41;101266.38;;;11.22
18161;BMP280;9205;52.032;4.314;2023-12-20T13:52:08;101271.56;;;11.14
18161;BMP280;9205;52.032;4.314;2023-12-20T13:54:35;101270.66;;;11.18
18161;BMP280;9205;52.032;4.314;2023-12-20T13:57:04;101268.13;;;11.18
18161;BMP280;9205;52.032;4.314;2023-12-20T13:59:32;101271.44;;;11.22
18161;BMP280;9205;52.032;4.314;2023-12-20T14:01:59;101264.69;;;11.21
18161;BMP280;9205;52.032;4.314;2023-12-20T14:04:28;101263.06;;;11.17
18161;BMP280;9205;52.032;4.314;2023-12-20T14:06:57;101262.22;;;11.16
18161;BMP280;9205;52.032;4.314;2023-12-20T14:09:24;101267.38;;;11.13
18161;BMP280;9205;52.032;4.314;2023-12-20T14:11:51;101257.22;;;11.13
18161;BMP280;9205;52.032;4.314;2023-12-20T14:14:19;101258.91;;;11.13
18161;BMP280;9205;52.032;4.314;2023-12-20T14:16:46;101241.09;;;11.13
18161;BMP280;9205;52.032;4.314;2023-12-20T14:19:13;101256.50;;;11.05
18161;BMP280;9205;52.032;4.314;2023-12-20T14:21:41;101249.69;;;11.06